^^
 
Daily Summary for October 22, 2019 Units:  English    Metric   Both
Daily Weekly Monthly Yearly Custom
  Current: High: Low: Average:
Temperature: 52.9 °F 56.3 °F 52 °F 53.1 °F
Dew Point: 37 °F 41 °F 35.3 °F 37.3 °F
Humidity: 54.6% 60% 52% 55%
Wind Speed: 0mph 0.3mph 0mph 0mph
Wind Gust: 0mph 1mph - -
WindCalm - - NNE
Pressure: 30.22 in 30.22 in 30.17 in -
Precipitation: 0.00 in      
Historical Graphs
 
 
Tabular Data for October 22, 2019
Time Temperature Dew Point Pressure Wind Wind Speed Wind Gust Humidity Rainfall Rate (Hourly) solar
00:04 56.3 °F 40.9 °F 30.18 in Calm     56.3% 0.00 in 0 W/m2
00:09 56.1 °F 40.6 °F 30.17 in Calm     56% 0.00 in 0 W/m2
00:14 55.9 °F 40.8 °F 30.18 in Calm     56.7% 0.00 in 0 W/m2
00:19 55.8 °F 40.8 °F 30.17 in Calm     57% 0.00 in 0 W/m2
00:24 55.7 °F 40.9 °F 30.18 in Calm     57.4% 0.00 in 0 W/m2
00:29 55.6 °F 40.9 °F 30.18 in Calm     57.8% 0.00 in 0 W/m2
00:34 55.4 °F 40.9 °F 30.17 in Calm     57.9% 0.00 in 0 W/m2
00:39 55.3 °F 40.5 °F 30.17 in Calm     57.5% 0.00 in 0 W/m2
00:44 55.1 °F 40.4 °F 30.17 in Calm     57.6% 0.00 in 0 W/m2
00:49 55 °F 40.5 °F 30.17 in Calm     58.1% 0.00 in 0 W/m2
00:54 54.8 °F 40.8 °F 30.17 in Calm     59.1% 0.00 in 0 W/m2
00:59 54.6 °F 41 °F 30.18 in Calm     60% 0.00 in 0 W/m2
01:04 54.5 °F 40.9 °F 30.18 in Calm     60% 0.00 in 0 W/m2
01:09 54.3 °F 40.7 °F 30.18 in Calm     60% 0.00 in 0 W/m2
01:14 54.2 °F 40.3 °F 30.18 in Calm     59.3% 0.00 in 0 W/m2
01:19 54 °F 40 °F 30.18 in Calm     59% 0.00 in 0 W/m2
01:24 53.8 °F 39.4 °F 30.18 in Calm     58% 0.00 in 0 W/m2
01:29 53.7 °F 38.8 °F 30.18 in Calm     57% 0.00 in 0 W/m2
01:34 53.5 °F 38.6 °F 30.18 in Calm     56.9% 0.00 in 0 W/m2
01:39 53.4 °F 38.1 °F 30.18 in Calm     56% 0.00 in 0 W/m2
01:44 53.3 °F 37.8 °F 30.19 in Calm     55.6% 0.00 in 0 W/m2
01:49 53.1 °F 37.2 °F 30.19 in Calm     54.7% 0.00 in 0 W/m2
01:54 53 °F 37.2 °F 30.19 in Calm     54.8% 0.00 in 0 W/m2
01:59 52.9 °F 36.8 °F 30.19 in Calm     54.3% 0.00 in 0 W/m2
02:04 52.8 °F 36.6 °F 30.19 in Calm     54% 0.00 in 0 W/m2
02:09 52.7 °F 36.8 °F 30.18 in Calm     54.6% 0.00 in 0 W/m2
02:14 52.7 °F 37 °F 30.18 in Calm     55% 0.00 in 0 W/m2
02:19 52.6 °F 36.8 °F 30.18 in Calm     54.9% 0.00 in 0 W/m2
02:24 52.6 °F 36.9 °F 30.18 in Calm     55% 0.00 in 0 W/m2
02:29 52.6 °F 36.9 °F 30.19 in Calm     55% 0.00 in 0 W/m2
02:34 52.5 °F 36.8 °F 30.19 in Calm     55% 0.00 in 0 W/m2
02:39 52.5 °F 36.8 °F 30.19 in Calm     55% 0.00 in 0 W/m2
02:44 52.5 °F 37.1 °F 30.19 in Calm     55.8% 0.00 in 0 W/m2
02:49 52.4 °F 37.3 °F 30.19 in Calm     56.1% 0.00 in 0 W/m2
02:54 52.4 °F 37.6 °F 30.19 in Calm     57% 0.00 in 0 W/m2
02:59 52.4 °F 37.6 °F 30.19 in Calm     57% 0.00 in 0 W/m2
03:04 52.3 °F 37.5 °F 30.19 in Calm     57% 0.00 in 0 W/m2
03:09 52.3 °F 37.5 °F 30.19 in Calm     57% 0.00 in 0 W/m2
03:14 52.3 °F 37.5 °F 30.19 in Calm     57% 0.00 in 0 W/m2
03:19 52.2 °F 37.4 °F 30.19 in Calm     57% 0.00 in 0 W/m2
03:24 52.2 °F 37.1 °F 30.19 in Calm     56.3% 0.00 in 0 W/m2
03:29 52.2 °F 37 °F 30.19 in Calm     56% 0.00 in 0 W/m2
03:34 52.1 °F 36.6 °F 30.19 in Calm     55.4% 0.00 in 0 W/m2
03:39 52.1 °F 36.7 °F 30.19 in Calm     55.6% 0.00 in 0 W/m2
03:44 52.1 °F 36.9 °F 30.19 in Calm     56% 0.00 in 0 W/m2
03:49 52 °F 36.8 °F 30.19 in Calm     55.9% 0.00 in 0 W/m2
03:54 52 °F 36.2 °F 30.19 in Calm     54.9% 0.00 in 0 W/m2
03:59 52 °F 35.9 °F 30.19 in Calm     54% 0.00 in 0 W/m2
04:04 52 °F 36 °F 30.19 in Calm     54.3% 0.00 in 0 W/m2
04:09 52 °F 36.5 °F 30.19 in Calm     55.3% 0.00 in 0 W/m2
04:14 52.1 °F 36.3 °F 30.19 in Calm     54.9% 0.00 in 0 W/m2
04:19 52.1 °F 35.6 °F 30.19 in Calm     53.1% 0.00 in 0 W/m2
04:24 52.1 °F 35.5 °F 30.19 in Calm     53% 0.00 in 0 W/m2
04:29 52.1 °F 35.5 °F 30.19 in Calm     53% 0.00 in 0 W/m2
04:34 52.2 °F 35.6 °F 30.19 in Calm     53% 0.00 in 0 W/m2
04:39 52.2 °F 35.6 °F 30.19 in Calm     53% 0.00 in 0 W/m2
04:44 52.3 °F 35.7 °F 30.19 in Calm     53% 0.00 in 0 W/m2
04:49 52.3 °F 35.7 °F 30.19 in Calm     52.9% 0.00 in 0 W/m2
04:54 52.4 °F 35.8 °F 30.19 in Calm     53% 0.00 in 0 W/m2
04:59 52.4 °F 35.7 °F 30.19 in Calm     52.8% 0.00 in 0 W/m2
05:04 52.4 °F 35.3 °F 30.20 in Calm     52% 0.00 in 0 W/m2
05:09 52.4 °F 35.3 °F 30.20 in Calm     52% 0.00 in 0 W/m2
05:14 52.5 °F 35.4 °F 30.20 in Calm     52% 0.00 in 0 W/m2
05:19 52.5 °F 35.6 °F 30.20 in Calm     52.5% 0.00 in 0 W/m2
05:24 52.5 °F 35.8 °F 30.20 in Calm     52.9% 0.00 in 0 W/m2
05:29 52.5 °F 35.5 °F 30.20 in Calm     52.1% 0.00 in 0 W/m2
05:34 52.5 °F 35.4 °F 30.20 in Calm     52% 0.00 in 0 W/m2
05:39 52.6 °F 35.5 °F 30.20 in Calm     52% 0.00 in 0 W/m2
05:44 52.6 °F 35.8 °F 30.20 in Calm     52.8% 0.00 in 0 W/m2
05:49 52.7 °F 35.9 °F 30.20 in NNE 0.3 mph 0.1 mph 52.9% 0.00 in 0 W/m2
05:54 52.8 °F 36.1 °F 30.20 in NNE 0.1 mph 1 mph 53% 0.00 in 0 W/m2
05:59 52.8 °F 36.4 °F 30.20 in Calm   1 mph 53.6% 0.00 in 0 W/m2
06:04 52.9 °F 36.2 °F 30.21 in NNE 0.2 mph   53% 0.00 in 0 W/m2
06:09 53 °F 36.3 °F 30.21 in Calm   1 mph 53% 0.00 in 0 W/m2
06:14 53 °F 36.4 °F 30.21 in Calm     53.1% 0.00 in 0 W/m2
06:19 53.1 °F 36.8 °F 30.21 in North 0.2 mph   53.9% 0.00 in 0 W/m2
06:24 53.1 °F 36.5 °F 30.21 in Calm   1 mph 53.1% 0.00 in 0 W/m2
06:29 53.1 °F 36.3 °F 30.21 in Calm     52.9% 0.00 in 0 W/m2
06:34 53.1 °F 36.2 °F 30.21 in Calm     52.6% 0.00 in 0 W/m2
06:39 53.1 °F 36.7 °F 30.21 in Calm     53.6% 0.00 in 0 W/m2
06:44 53.1 °F 36.9 °F 30.21 in Calm     54% 0.00 in 0 W/m2
06:49 53.1 °F 36.6 °F 30.21 in Calm     53.5% 0.00 in 0 W/m2
06:54 53 °F 36.7 °F 30.21 in Calm     53.8% 0.00 in 0 W/m2
06:59 53 °F 36.7 °F 30.21 in Calm     53.7% 0.00 in 0 W/m2
07:04 53 °F 36.3 °F 30.22 in Calm     53% 0.00 in 0 W/m2
07:09 52.9 °F 36.2 °F 30.22 in Calm     53% 0.00 in 0 W/m2
07:14 52.9 °F 37 °F 30.22 in Calm     54.6% 0.00 in 0 W/m2
El Dorado Weather
Compliments of Weather Underground - 2 mb